sensor_id;sensor_type;location;lat;lon;timestamp;P1;durP1;ratioP1;P2;durP2;ratioP2
15287;SDS011;7745;48.708;9.026;2023-11-21T00:17:17;4.73;;;2.00;;
15287;SDS011;7745;48.708;9.026;2023-11-21T00:19:44;5.77;;;1.70;;
15287;SDS011;7745;48.708;9.026;2023-11-21T00:22:11;6.63;;;1.90;;
15287;SDS011;7745;48.708;9.026;2023-11-21T00:24:37;6.33;;;1.97;;
15287;SDS011;7745;48.708;9.026;2023-11-21T00:27:04;5.23;;;2.07;;
15287;SDS011;7745;48.708;9.026;2023-11-21T00:29:32;7.37;;;2.27;;
15287;SDS011;7745;48.708;9.026;2023-11-21T00:31:59;7.40;;;2.43;;
15287;SDS011;7745;48.708;9.026;2023-11-21T00:34:27;8.97;;;2.67;;
15287;SDS011;7745;48.708;9.026;2023-11-21T00:36:54;9.60;;;2.40;;
15287;SDS011;7745;48.708;9.026;2023-11-21T00:39:21;7.97;;;2.40;;
15287;SDS011;7745;48.708;9.026;2023-11-21T00:41:48;7.33;;;2.50;;
15287;SDS011;7745;48.708;9.026;2023-11-21T00:44:15;10.27;;;2.70;;
15287;SDS011;7745;48.708;9.026;2023-11-21T00:46:44;5.27;;;2.03;;
15287;SDS011;7745;48.708;9.026;2023-11-21T00:49:11;8.77;;;2.40;;
15287;SDS011;7745;48.708;9.026;2023-11-21T00:51:39;9.77;;;2.33;;
15287;SDS011;7745;48.708;9.026;2023-11-21T00:54:06;9.47;;;2.37;;
15287;SDS011;7745;48.708;9.026;2023-11-21T00:56:33;6.57;;;2.13;;
15287;SDS011;7745;48.708;9.026;2023-11-21T00:59:00;8.97;;;1.97;;
15287;SDS011;7745;48.708;9.026;2023-11-21T01:01:27;8.07;;;2.03;;
15287;SDS011;7745;48.708;9.026;2023-11-21T01:03:54;5.00;;;1.80;;
15287;SDS011;7745;48.708;9.026;2023-11-21T01:06:21;9.00;;;1.93;;
15287;SDS011;7745;48.708;9.026;2023-11-21T01:08:53;4.13;;;1.67;;
15287;SDS011;7745;48.708;9.026;2023-11-21T01:11:20;5.07;;;1.50;;
15287;SDS011;7745;48.708;9.026;2023-11-21T01:13:46;4.27;;;1.93;;
15287;SDS011;7745;48.708;9.026;2023-11-21T01:16:13;5.33;;;1.60;;
15287;SDS011;7745;48.708;9.026;2023-11-21T01:18:40;5.33;;;1.90;;
15287;SDS011;7745;48.708;9.026;2023-11-21T01:21:07;3.93;;;1.60;;
15287;SDS011;7745;48.708;9.026;2023-11-21T01:23:34;3.03;;;1.33;;
15287;SDS011;7745;48.708;9.026;2023-11-21T01:26:03;4.87;;;1.60;;
15287;SDS011;7745;48.708;9.026;2023-11-21T01:28:29;4.67;;;1.50;;
15287;SDS011;7745;48.708;9.026;2023-11-21T01:30:57;6.63;;;1.80;;
15287;SDS011;7745;48.708;9.026;2023-11-21T01:33:24;3.67;;;1.60;;
15287;SDS011;7745;48.708;9.026;2023-11-21T01:35:51;3.40;;;1.50;;
15287;SDS011;7745;48.708;9.026;2023-11-21T01:38:20;5.00;;;1.40;;
15287;SDS011;7745;48.708;9.026;2023-11-21T01:40:47;3.90;;;1.53;;
15287;SDS011;7745;48.708;9.026;2023-11-21T01:43:15;6.20;;;1.60;;
15287;SDS011;7745;48.708;9.026;2023-11-21T01:45:42;5.60;;;1.43;;
15287;SDS011;7745;48.708;9.026;2023-11-21T01:48:10;5.30;;;1.80;;
15287;SDS011;7745;48.708;9.026;2023-11-21T01:50:38;6.77;;;1.90;;
15287;SDS011;7745;48.708;9.026;2023-11-21T01:53:05;5.17;;;1.43;;
15287;SDS011;7745;48.708;9.026;2023-11-21T01:55:33;5.67;;;1.67;;
15287;SDS011;7745;48.708;9.026;2023-11-21T01:58:03;3.70;;;1.37;;
15287;SDS011;7745;48.708;9.026;2023-11-21T02:00:34;3.67;;;1.33;;
15287;SDS011;7745;48.708;9.026;2023-11-21T02:03:03;6.93;;;1.93;;
15287;SDS011;7745;48.708;9.026;2023-11-21T02:05:32;3.20;;;1.40;;
15287;SDS011;7745;48.708;9.026;2023-11-21T02:07:59;5.00;;;1.60;;
15287;SDS011;7745;48.708;9.026;2023-11-21T02:10:27;4.00;;;1.20;;
15287;SDS011;7745;48.708;9.026;2023-11-21T02:12:56;4.80;;;1.60;;
15287;SDS011;7745;48.708;9.026;2023-11-21T02:15:23;4.27;;;1.33;;
15287;SDS011;7745;48.708;9.026;2023-11-21T02:17:55;5.70;;;1.33;;
15287;SDS011;7745;48.708;9.026;2023-11-21T02:20:24;5.73;;;1.40;;
15287;SDS011;7745;48.708;9.026;2023-11-21T02:22:55;2.50;;;1.13;;
15287;SDS011;7745;48.708;9.026;2023-11-21T02:25:24;3.13;;;1.03;;
15287;SDS011;7745;48.708;9.026;2023-11-21T02:27:51;4.33;;;1.40;;
15287;SDS011;7745;48.708;9.026;2023-11-21T02:30:19;5.03;;;1.30;;
15287;SDS011;7745;48.708;9.026;2023-11-21T02:32:46;5.30;;;0.87;;
15287;SDS011;7745;48.708;9.026;2023-11-21T02:35:18;1.10;;;0.80;;
15287;SDS011;7745;48.708;9.026;2023-11-21T02:37:46;4.17;;;1.10;;
15287;SDS011;7745;48.708;9.026;2023-11-21T02:40:14;3.37;;;0.90;;
15287;SDS011;7745;48.708;9.026;2023-11-21T02:42:43;3.30;;;0.90;;
15287;SDS011;7745;48.708;9.026;2023-11-21T02:45:10;1.20;;;0.90;;
15287;SDS011;7745;48.708;9.026;2023-11-21T02:47:38;1.70;;;0.77;;
15287;SDS011;7745;48.708;9.026;2023-11-21T02:50:05;4.17;;;1.50;;
15287;SDS011;7745;48.708;9.026;2023-11-21T02:52:33;2.67;;;0.90;;
15287;SDS011;7745;48.708;9.026;2023-11-21T02:55:00;2.17;;;0.80;;
15287;SDS011;7745;48.708;9.026;2023-11-21T02:57:29;3.33;;;1.00;;
15287;SDS011;7745;48.708;9.026;2023-11-21T02:59:56;3.77;;;1.10;;
15287;SDS011;7745;48.708;9.026;2023-11-21T03:02:23;1.50;;;0.77;;
15287;SDS011;7745;48.708;9.026;2023-11-21T03:04:50;2.50;;;0.80;;
15287;SDS011;7745;48.708;9.026;2023-11-21T03:07:19;3.27;;;0.80;;
15287;SDS011;7745;48.708;9.026;2023-11-21T03:09:46;2.17;;;0.93;;
15287;SDS011;7745;48.708;9.026;2023-11-21T03:12:13;3.20;;;0.90;;
15287;SDS011;7745;48.708;9.026;2023-11-21T03:14:44;4.20;;;1.20;;
15287;SDS011;7745;48.708;9.026;2023-11-21T03:17:11;2.80;;;0.70;;
15287;SDS011;7745;48.708;9.026;2023-11-21T03:19:40;2.77;;;0.73;;
15287;SDS011;7745;48.708;9.026;2023-11-21T03:22:08;2.00;;;0.97;;
15287;SDS011;7745;48.708;9.026;2023-11-21T03:24:36;2.53;;;0.80;;
15287;SDS011;7745;48.708;9.026;2023-11-21T03:27:04;1.53;;;0.80;;
15287;SDS011;7745;48.708;9.026;2023-11-21T03:29:31;3.73;;;1.40;;
15287;SDS011;7745;48.708;9.026;2023-11-21T03:31:59;1.37;;;0.60;;
15287;SDS011;7745;48.708;9.026;2023-11-21T03:34:27;2.47;;;0.80;;
15287;SDS011;7745;48.708;9.026;2023-11-21T03:36:54;2.23;;;0.60;;
15287;SDS011;7745;48.708;9.026;2023-11-21T03:39:21;2.40;;;0.70;;
15287;SDS011;7745;48.708;9.026;2023-11-21T03:41:51;2.47;;;0.90;;
15287;SDS011;7745;48.708;9.026;2023-11-21T03:44:19;2.33;;;0.80;;
15287;SDS011;7745;48.708;9.026;2023-11-21T03:46:47;2.20;;;0.60;;
15287;SDS011;7745;48.708;9.026;2023-11-21T03:49:15;3.43;;;0.80;;
15287;SDS011;7745;48.708;9.026;2023-11-21T03:51:42;2.23;;;0.80;;
15287;SDS011;7745;48.708;9.026;2023-11-21T03:54:10;2.90;;;0.80;;
15287;SDS011;7745;48.708;9.026;2023-11-21T03:59:19;1.73;;;0.60;;
15287;SDS011;7745;48.708;9.026;2023-11-21T04:01:48;1.80;;;0.93;;
15287;SDS011;7745;48.708;9.026;2023-11-21T04:04:17;1.67;;;0.70;;
15287;SDS011;7745;48.708;9.026;2023-11-21T04:06:44;2.27;;;0.80;;
15287;SDS011;7745;48.708;9.026;2023-11-21T04:09:11;4.40;;;2.67;;
15287;SDS011;7745;48.708;9.026;2023-11-21T04:11:39;1.97;;;0.70;;
15287;SDS011;7745;48.708;9.026;2023-11-21T04:14:06;1.17;;;0.67;;
15287;SDS011;7745;48.708;9.026;2023-11-21T04:16:33;2.37;;;0.53;;
15287;SDS011;7745;48.708;9.026;2023-11-21T04:19:00;3.07;;;0.83;;
15287;SDS011;7745;48.708;9.026;2023-11-21T04:21:28;2.90;;;0.60;;
15287;SDS011;7745;48.708;9.026;2023-11-21T04:23:55;2.17;;;0.97;;
15287;SDS011;7745;48.708;9.026;2023-11-21T04:26:22;1.83;;;0.70;;
15287;SDS011;7745;48.708;9.026;2023-11-21T04:28:49;2.47;;;0.70;;
15287;SDS011;7745;48.708;9.026;2023-11-21T04:31:16;1.17;;;0.50;;
15287;SDS011;7745;48.708;9.026;2023-11-21T04:33:43;2.13;;;0.60;;
15287;SDS011;7745;48.708;9.026;2023-11-21T04:36:10;1.77;;;0.77;;
15287;SDS011;7745;48.708;9.026;2023-11-21T04:38:39;2.23;;;0.60;;
15287;SDS011;7745;48.708;9.026;2023-11-21T04:41:06;1.03;;;0.53;;
15287;SDS011;7745;48.708;9.026;2023-11-21T04:43:33;1.60;;;0.50;;
15287;SDS011;7745;48.708;9.026;2023-11-21T04:46:00;2.47;;;0.63;;
15287;SDS011;7745;48.708;9.026;2023-11-21T04:48:28;0.83;;;0.67;;
15287;SDS011;7745;48.708;9.026;2023-11-21T04:50:55;0.80;;;0.50;;
15287;SDS011;7745;48.708;9.026;2023-11-21T04:53:22;1.77;;;0.60;;
15287;SDS011;7745;48.708;9.026;2023-11-21T04:55:50;1.33;;;0.70;;
15287;SDS011;7745;48.708;9.026;2023-11-21T04:58:17;1.77;;;0.77;;
15287;SDS011;7745;48.708;9.026;2023-11-21T05:00:45;1.13;;;0.50;;
15287;SDS011;7745;48.708;9.026;2023-11-21T05:03:12;1.20;;;0.53;;
15287;SDS011;7745;48.708;9.026;2023-11-21T05:05:39;1.30;;;0.67;;
15287;SDS011;7745;48.708;9.026;2023-11-21T05:08:06;5.07;;;0.77;;
15287;SDS011;7745;48.708;9.026;2023-11-21T05:10:33;3.10;;;0.70;;
15287;SDS011;7745;48.708;9.026;2023-11-21T05:13:04;1.00;;;0.70;;
15287;SDS011;7745;48.708;9.026;2023-11-21T05:15:35;2.13;;;0.60;;
15287;SDS011;7745;48.708;9.026;2023-11-21T05:18:03;2.50;;;0.60;;
15287;SDS011;7745;48.708;9.026;2023-11-21T05:20:31;0.93;;;0.70;;
15287;SDS011;7745;48.708;9.026;2023-11-21T05:22:58;0.83;;;0.60;;
15287;SDS011;7745;48.708;9.026;2023-11-21T05:25:25;2.07;;;0.70;;
15287;SDS011;7745;48.708;9.026;2023-11-21T05:27:52;0.93;;;0.60;;
15287;SDS011;7745;48.708;9.026;2023-11-21T05:30:21;1.67;;;0.70;;
15287;SDS011;7745;48.708;9.026;2023-11-21T05:32:48;0.83;;;0.80;;
15287;SDS011;7745;48.708;9.026;2023-11-21T05:35:15;2.53;;;0.80;;
15287;SDS011;7745;48.708;9.026;2023-11-21T05:37:43;3.70;;;0.87;;
15287;SDS011;7745;48.708;9.026;2023-11-21T05:40:10;0.70;;;0.63;;
15287;SDS011;7745;48.708;9.026;2023-11-21T05:42:39;2.00;;;1.00;;
15287;SDS011;7745;48.708;9.026;2023-11-21T05:45:09;1.63;;;0.87;;
15287;SDS011;7745;48.708;9.026;2023-11-21T05:47:38;1.00;;;0.80;;
15287;SDS011;7745;48.708;9.026;2023-11-21T05:50:06;2.20;;;0.70;;
15287;SDS011;7745;48.708;9.026;2023-11-21T05:52:37;2.40;;;0.90;;
15287;SDS011;7745;48.708;9.026;2023-11-21T05:55:07;2.37;;;1.10;;
15287;SDS011;7745;48.708;9.026;2023-11-21T05:57:34;1.23;;;0.90;;
15287;SDS011;7745;48.708;9.026;2023-11-21T06:00:03;3.60;;;1.00;;
15287;SDS011;7745;48.708;9.026;2023-11-21T06:02:38;1.73;;;1.00;;
15287;SDS011;7745;48.708;9.026;2023-11-21T06:05:06;1.70;;;0.97;;
15287;SDS011;7745;48.708;9.026;2023-11-21T06:07:34;2.07;;;1.00;;
15287;SDS011;7745;48.708;9.026;2023-11-21T06:10:05;2.60;;;1.00;;
15287;SDS011;7745;48.708;9.026;2023-11-21T06:12:36;1.87;;;0.90;;
15287;SDS011;7745;48.708;9.026;2023-11-21T06:15:05;1.23;;;1.07;;
15287;SDS011;7745;48.708;9.026;2023-11-21T06:17:33;3.00;;;1.20;;
15287;SDS011;7745;48.708;9.026;2023-11-21T06:20:02;2.07;;;0.80;;
15287;SDS011;7745;48.708;9.026;2023-11-21T06:22:34;1.23;;;0.90;;
15287;SDS011;7745;48.708;9.026;2023-11-21T06:25:01;2.23;;;1.10;;
15287;SDS011;7745;48.708;9.026;2023-11-21T06:27:28;2.80;;;1.00;;
15287;SDS011;7745;48.708;9.026;2023-11-21T06:29:55;2.60;;;1.17;;
15287;SDS011;7745;48.708;9.026;2023-11-21T06:32:21;4.00;;;1.50;;
15287;SDS011;7745;48.708;9.026;2023-11-21T06:34:48;4.30;;;1.20;;
15287;SDS011;7745;48.708;9.026;2023-11-21T06:37:18;2.43;;;1.50;;
15287;SDS011;7745;48.708;9.026;2023-11-21T06:39:46;3.50;;;1.70;;
15287;SDS011;7745;48.708;9.026;2023-11-21T06:42:13;3.53;;;1.67;;
15287;SDS011;7745;48.708;9.026;2023-11-21T06:44:40;2.40;;;1.60;;
15287;SDS011;7745;48.708;9.026;2023-11-21T06:47:07;2.87;;;1.80;;
15287;SDS011;7745;48.708;9.026;2023-11-21T06:49:34;2.73;;;1.70;;
15287;SDS011;7745;48.708;9.026;2023-11-21T06:52:08;2.57;;;1.73;;
15287;SDS011;7745;48.708;9.026;2023-11-21T06:54:40;3.47;;;1.80;;
15287;SDS011;7745;48.708;9.026;2023-11-21T06:57:07;2.10;;;1.40;;
15287;SDS011;7745;48.708;9.026;2023-11-21T06:59:34;2.33;;;1.30;;
15287;SDS011;7745;48.708;9.026;2023-11-21T07:02:01;2.73;;;1.10;;
15287;SDS011;7745;48.708;9.026;2023-11-21T07:04:31;2.10;;;1.60;;
15287;SDS011;7745;48.708;9.026;2023-11-21T07:06:58;3.10;;;1.40;;
15287;SDS011;7745;48.708;9.026;2023-11-21T07:09:28;5.00;;;1.47;;
15287;SDS011;7745;48.708;9.026;2023-11-21T07:11:57;3.53;;;2.23;;
15287;SDS011;7745;48.708;9.026;2023-11-21T07:14:24;4.40;;;2.37;;
15287;SDS011;7745;48.708;9.026;2023-11-21T07:16:51;4.10;;;1.97;;
15287;SDS011;7745;48.708;9.026;2023-11-21T07:19:18;2.87;;;1.50;;
15287;SDS011;7745;48.708;9.026;2023-11-21T07:21:46;2.00;;;1.20;;
15287;SDS011;7745;48.708;9.026;2023-11-21T07:24:16;6.50;;;1.93;;
15287;SDS011;7745;48.708;9.026;2023-11-21T07:26:43;3.73;;;1.13;;
15287;SDS011;7745;48.708;9.026;2023-11-21T07:29:16;2.10;;;1.50;;
15287;SDS011;7745;48.708;9.026;2023-11-21T07:31:43;4.33;;;1.57;;
15287;SDS011;7745;48.708;9.026;2023-11-21T07:34:15;2.97;;;1.70;;
15287;SDS011;7745;48.708;9.026;2023-11-21T07:36:43;4.37;;;1.83;;
15287;SDS011;7745;48.708;9.026;2023-11-21T07:39:10;2.43;;;1.60;;
15287;SDS011;7745;48.708;9.026;2023-11-21T07:41:37;5.63;;;2.00;;
15287;SDS011;7745;48.708;9.026;2023-11-21T07:44:10;3.03;;;1.63;;
15287;SDS011;7745;48.708;9.026;2023-11-21T07:46:38;3.53;;;1.97;;
15287;SDS011;7745;48.708;9.026;2023-11-21T07:49:05;2.23;;;1.63;;
15287;SDS011;7745;48.708;9.026;2023-11-21T07:51:32;5.63;;;1.80;;
15287;SDS011;7745;48.708;9.026;2023-11-21T07:53:59;5.10;;;2.20;;
15287;SDS011;7745;48.708;9.026;2023-11-21T07:56:26;2.60;;;1.90;;
15287;SDS011;7745;48.708;9.026;2023-11-21T07:58:53;11.60;;;2.50;;
15287;SDS011;7745;48.708;9.026;2023-11-21T08:01:20;6.97;;;2.50;;
15287;SDS011;7745;48.708;9.026;2023-11-21T08:03:49;12.90;;;2.43;;
15287;SDS011;7745;48.708;9.026;2023-11-21T08:06:17;14.90;;;2.90;;
15287;SDS011;7745;48.708;9.026;2023-11-21T08:08:44;14.47;;;3.70;;
15287;SDS011;7745;48.708;9.026;2023-11-21T08:11:12;15.30;;;3.27;;
15287;SDS011;7745;48.708;9.026;2023-11-21T08:13:41;30.13;;;4.10;;
15287;SDS011;7745;48.708;9.026;2023-11-21T08:16:11;12.30;;;2.50;;
15287;SDS011;7745;48.708;9.026;2023-11-21T08:18:37;3.90;;;1.80;;
15287;SDS011;7745;48.708;9.026;2023-11-21T08:21:06;3.30;;;1.93;;
15287;SDS011;7745;48.708;9.026;2023-11-21T08:23:34;7.17;;;2.27;;
15287;SDS011;7745;48.708;9.026;2023-11-21T08:26:00;3.33;;;2.00;;
15287;SDS011;7745;48.708;9.026;2023-11-21T08:28:28;2.83;;;1.60;;
15287;SDS011;7745;48.708;9.026;2023-11-21T08:30:55;2.13;;;1.70;;
15287;SDS011;7745;48.708;9.026;2023-11-21T08:33:22;2.57;;;1.67;;
15287;SDS011;7745;48.708;9.026;2023-11-21T08:35:48;2.93;;;1.20;;
15287;SDS011;7745;48.708;9.026;2023-11-21T08:38:17;4.43;;;1.30;;
15287;SDS011;7745;48.708;9.026;2023-11-21T08:40:44;3.17;;;1.40;;
15287;SDS011;7745;48.708;9.026;2023-11-21T08:43:28;2.80;;;1.30;;
15287;SDS011;7745;48.708;9.026;2023-11-21T08:46:59;4.20;;;1.27;;
15287;SDS011;7745;48.708;9.026;2023-11-21T08:49:38;3.40;;;1.53;;
15287;SDS011;7745;48.708;9.026;2023-11-21T08:55:32;21.67;;;2.70;;
15287;SDS011;7745;48.708;9.026;2023-11-21T08:58:26;5.17;;;1.77;;
15287;SDS011;7745;48.708;9.026;2023-11-21T09:00:53;7.70;;;1.60;;
15287;SDS011;7745;48.708;9.026;2023-11-21T09:03:19;11.07;;;1.93;;
15287;SDS011;7745;48.708;9.026;2023-11-21T09:05:46;35.97;;;4.13;;
15287;SDS011;7745;48.708;9.026;2023-11-21T09:08:13;19.70;;;2.57;;
15287;SDS011;7745;48.708;9.026;2023-11-21T09:10:47;3.83;;;1.10;;
15287;SDS011;7745;48.708;9.026;2023-11-21T09:13:23;19.03;;;4.17;;
15287;SDS011;7745;48.708;9.026;2023-11-21T09:15:50;2.33;;;1.03;;
15287;SDS011;7745;48.708;9.026;2023-11-21T09:18:17;3.23;;;1.07;;
15287;SDS011;7745;48.708;9.026;2023-11-21T09:20:45;1.97;;;1.50;;
15287;SDS011;7745;48.708;9.026;2023-11-21T09:23:11;9.70;;;1.57;;
15287;SDS011;7745;48.708;9.026;2023-11-21T09:25:38;7.60;;;1.97;;
15287;SDS011;7745;48.708;9.026;2023-11-21T09:28:12;4.30;;;1.40;;
15287;SDS011;7745;48.708;9.026;2023-11-21T09:30:50;6.97;;;3.00;;
15287;SDS011;7745;48.708;9.026;2023-11-21T09:33:17;3.03;;;1.50;;
15287;SDS011;7745;48.708;9.026;2023-11-21T09:35:47;4.97;;;1.50;;
15287;SDS011;7745;48.708;9.026;2023-11-21T09:38:37;2.73;;;1.33;;
15287;SDS011;7745;48.708;9.026;2023-11-21T09:44:32;2.30;;;1.50;;
15287;SDS011;7745;48.708;9.026;2023-11-21T09:47:14;2.50;;;1.20;;
15287;SDS011;7745;48.708;9.026;2023-11-21T09:49:42;3.00;;;1.50;;
15287;SDS011;7745;48.708;9.026;2023-11-21T09:52:22;2.20;;;1.40;;
15287;SDS011;7745;48.708;9.026;2023-11-21T09:54:51;1.70;;;1.60;;
15287;SDS011;7745;48.708;9.026;2023-11-21T09:57:19;2.10;;;1.33;;
15287;SDS011;7745;48.708;9.026;2023-11-21T09:59:48;1.93;;;1.40;;
15287;SDS011;7745;48.708;9.026;2023-11-21T10:02:20;6.50;;;4.43;;
15287;SDS011;7745;48.708;9.026;2023-11-21T10:04:51;8.37;;;5.57;;
15287;SDS011;7745;48.708;9.026;2023-11-21T10:07:19;9.93;;;6.07;;
15287;SDS011;7745;48.708;9.026;2023-11-21T10:09:47;6.80;;;5.40;;
15287;SDS011;7745;48.708;9.026;2023-11-21T10:12:15;4.80;;;2.97;;
15287;SDS011;7745;48.708;9.026;2023-11-21T10:14:42;3.97;;;2.50;;
15287;SDS011;7745;48.708;9.026;2023-11-21T10:17:14;6.00;;;4.17;;
15287;SDS011;7745;48.708;9.026;2023-11-21T10:19:43;6.37;;;2.83;;
15287;SDS011;7745;48.708;9.026;2023-11-21T10:22:13;4.00;;;2.50;;
15287;SDS011;7745;48.708;9.026;2023-11-21T10:24:41;3.60;;;2.10;;
15287;SDS011;7745;48.708;9.026;2023-11-21T10:27:08;2.67;;;1.80;;
15287;SDS011;7745;48.708;9.026;2023-11-21T10:29:35;3.27;;;1.83;;
15287;SDS011;7745;48.708;9.026;2023-11-21T10:32:02;2.10;;;1.90;;
15287;SDS011;7745;48.708;9.026;2023-11-21T10:34:31;3.60;;;2.20;;
15287;SDS011;7745;48.708;9.026;2023-11-21T10:37:00;3.30;;;1.80;;
15287;SDS011;7745;48.708;9.026;2023-11-21T10:39:38;3.20;;;1.70;;
15287;SDS011;7745;48.708;9.026;2023-11-21T10:42:07;7.40;;;2.30;;
15287;SDS011;7745;48.708;9.026;2023-11-21T10:44:34;4.10;;;2.20;;
15287;SDS011;7745;48.708;9.026;2023-11-21T10:47:01;3.87;;;2.30;;
15287;SDS011;7745;48.708;9.026;2023-11-21T10:49:28;5.27;;;1.60;;
15287;SDS011;7745;48.708;9.026;2023-11-21T10:51:56;6.17;;;2.30;;
15287;SDS011;7745;48.708;9.026;2023-11-21T10:54:24;3.90;;;2.33;;
15287;SDS011;7745;48.708;9.026;2023-11-21T10:56:53;3.80;;;2.57;;
15287;SDS011;7745;48.708;9.026;2023-11-21T10:59:24;5.93;;;2.40;;
15287;SDS011;7745;48.708;9.026;2023-11-21T11:01:54;2.27;;;2.07;;
15287;SDS011;7745;48.708;9.026;2023-11-21T11:04:26;3.37;;;2.50;;
15287;SDS011;7745;48.708;9.026;2023-11-21T11:06:54;4.33;;;3.20;;
15287;SDS011;7745;48.708;9.026;2023-11-21T11:09:24;3.67;;;2.90;;
15287;SDS011;7745;48.708;9.026;2023-11-21T11:11:52;9.53;;;4.53;;
15287;SDS011;7745;48.708;9.026;2023-11-21T11:14:19;3.30;;;2.80;;
15287;SDS011;7745;48.708;9.026;2023-11-21T11:16:50;3.27;;;2.50;;
15287;SDS011;7745;48.708;9.026;2023-11-21T11:19:19;3.70;;;2.50;;
15287;SDS011;7745;48.708;9.026;2023-11-21T11:21:48;5.33;;;3.03;;
15287;SDS011;7745;48.708;9.026;2023-11-21T11:27:22;2.60;;;2.40;;
15287;SDS011;7745;48.708;9.026;2023-11-21T11:29:59;2.73;;;2.30;;
15287;SDS011;7745;48.708;9.026;2023-11-21T11:32:38;2.57;;;2.37;;
15287;SDS011;7745;48.708;9.026;2023-11-21T11:35:13;3.80;;;2.10;;
15287;SDS011;7745;48.708;9.026;2023-11-21T11:37:48;2.17;;;2.00;;
15287;SDS011;7745;48.708;9.026;2023-11-21T11:40:16;4.00;;;2.10;;
15287;SDS011;7745;48.708;9.026;2023-11-21T11:42:55;1.70;;;1.60;;
15287;SDS011;7745;48.708;9.026;2023-11-21T11:45:24;2.17;;;1.73;;
15287;SDS011;7745;48.708;9.026;2023-11-21T11:47:58;5.20;;;1.60;;
15287;SDS011;7745;48.708;9.026;2023-11-21T11:50:26;1.60;;;1.27;;
15287;SDS011;7745;48.708;9.026;2023-11-21T11:52:53;1.83;;;1.60;;
15287;SDS011;7745;48.708;9.026;2023-11-21T11:55:24;2.13;;;1.13;;
15287;SDS011;7745;48.708;9.026;2023-11-21T11:57:55;2.27;;;1.70;;
15287;SDS011;7745;48.708;9.026;2023-11-21T12:00:32;1.77;;;1.40;;
15287;SDS011;7745;48.708;9.026;2023-11-21T12:03:02;1.63;;;1.53;;
15287;SDS011;7745;48.708;9.026;2023-11-21T12:05:31;2.27;;;1.50;;
15287;SDS011;7745;48.708;9.026;2023-11-21T12:08:01;2.23;;;1.80;;
15287;SDS011;7745;48.708;9.026;2023-11-21T12:10:31;1.87;;;1.73;;
15287;SDS011;7745;48.708;9.026;2023-11-21T12:12:59;1.80;;;1.70;;
15287;SDS011;7745;48.708;9.026;2023-11-21T12:15:28;2.53;;;1.93;;
15287;SDS011;7745;48.708;9.026;2023-11-21T12:17:56;1.73;;;1.63;;
15287;SDS011;7745;48.708;9.026;2023-11-21T12:20:24;1.50;;;1.40;;
15287;SDS011;7745;48.708;9.026;2023-11-21T12:22:53;1.50;;;1.40;;
15287;SDS011;7745;48.708;9.026;2023-11-21T12:25:21;1.70;;;1.60;;
15287;SDS011;7745;48.708;9.026;2023-11-21T12:27:50;4.20;;;1.93;;
15287;SDS011;7745;48.708;9.026;2023-11-21T12:30:18;2.77;;;1.70;;
15287;SDS011;7745;48.708;9.026;2023-11-21T12:32:47;2.13;;;1.70;;
15287;SDS011;7745;48.708;9.026;2023-11-21T12:35:16;2.17;;;1.80;;
15287;SDS011;7745;48.708;9.026;2023-11-21T12:37:44;1.73;;;1.63;;
15287;SDS011;7745;48.708;9.026;2023-11-21T12:40:12;1.50;;;1.40;;
15287;SDS011;7745;48.708;9.026;2023-11-21T12:42:40;2.00;;;1.90;;
15287;SDS011;7745;48.708;9.026;2023-11-21T12:45:18;2.20;;;1.60;;
15287;SDS011;7745;48.708;9.026;2023-11-21T12:47:45;2.43;;;1.70;;
15287;SDS011;7745;48.708;9.026;2023-11-21T12:50:13;2.50;;;1.67;;
15287;SDS011;7745;48.708;9.026;2023-11-21T12:52:43;1.53;;;1.43;;
15287;SDS011;7745;48.708;9.026;2023-11-21T12:55:14;5.97;;;2.10;;
15287;SDS011;7745;48.708;9.026;2023-11-21T12:57:42;1.33;;;1.23;;
15287;SDS011;7745;48.708;9.026;2023-11-21T13:00:12;3.73;;;1.50;;
15287;SDS011;7745;48.708;9.026;2023-11-21T13:02:51;2.27;;;1.73;;
15287;SDS011;7745;48.708;9.026;2023-11-21T13:05:28;1.97;;;1.87;;
15287;SDS011;7745;48.708;9.026;2023-11-21T13:07:57;1.80;;;1.70;;
15287;SDS011;7745;48.708;9.026;2023-11-21T13:10:27;2.30;;;2.10;;
15287;SDS011;7745;48.708;9.026;2023-11-21T13:13:00;3.20;;;2.10;;
15287;SDS011;7745;48.708;9.026;2023-11-21T13:15:31;2.50;;;2.30;;
15287;SDS011;7745;48.708;9.026;2023-11-21T13:18:00;3.67;;;2.47;;
15287;SDS011;7745;48.708;9.026;2023-11-21T13:20:27;2.83;;;2.50;;
15287;SDS011;7745;48.708;9.026;2023-11-21T13:22:55;2.80;;;2.37;;
15287;SDS011;7745;48.708;9.026;2023-11-21T13:25:24;2.90;;;2.70;;
15287;SDS011;7745;48.708;9.026;2023-11-21T13:27:52;3.30;;;3.00;;
15287;SDS011;7745;48.708;9.026;2023-11-21T13:30:22;2.70;;;2.50;;
15287;SDS011;7745;48.708;9.026;2023-11-21T13:32:53;4.07;;;3.30;;
15287;SDS011;7745;48.708;9.026;2023-11-21T13:35:22;3.73;;;3.10;;
15287;SDS011;7745;48.708;9.026;2023-11-21T13:37:56;4.13;;;3.13;;
15287;SDS011;7745;48.708;9.026;2023-11-21T13:40:25;3.40;;;2.73;;
15287;SDS011;7745;48.708;9.026;2023-11-21T13:42:52;1.80;;;1.70;;
15287;SDS011;7745;48.708;9.026;2023-11-21T13:45:20;1.47;;;1.20;;
15287;SDS011;7745;48.708;9.026;2023-11-21T13:47:48;1.63;;;1.40;;
15287;SDS011;7745;48.708;9.026;2023-11-21T13:50:18;2.80;;;1.27;;
15287;SDS011;7745;48.708;9.026;2023-11-21T13:52:50;1.33;;;0.70;;
15287;SDS011;7745;48.708;9.026;2023-11-21T13:55:19;1.13;;;0.87;;
15287;SDS011;7745;48.708;9.026;2023-11-21T13:57:49;1.73;;;0.80;;
15287;SDS011;7745;48.708;9.026;2023-11-21T14:00:17;2.63;;;0.73;;
15287;SDS011;7745;48.708;9.026;2023-11-21T14:03:07;1.57;;;0.87;;
15287;SDS011;7745;48.708;9.026;2023-11-21T14:05:44;0.83;;;0.80;;
15287;SDS011;7745;48.708;9.026;2023-11-21T14:08:12;3.27;;;0.80;;
15287;SDS011;7745;48.708;9.026;2023-11-21T14:10:42;0.70;;;0.70;;
15287;SDS011;7745;48.708;9.026;2023-11-21T14:13:10;0.80;;;0.80;;
15287;SDS011;7745;48.708;9.026;2023-11-21T14:15:39;2.73;;;1.80;;
15287;SDS011;7745;48.708;9.026;2023-11-21T14:18:10;1.00;;;0.70;;
15287;SDS011;7745;48.708;9.026;2023-11-21T14:20:39;1.03;;;0.93;;
15287;SDS011;7745;48.708;9.026;2023-11-21T14:23:09;0.87;;;0.87;;
15287;SDS011;7745;48.708;9.026;2023-11-21T14:25:37;0.97;;;0.97;;
15287;SDS011;7745;48.708;9.026;2023-11-21T14:28:07;1.40;;;1.30;;
15287;SDS011;7745;48.708;9.026;2023-11-21T14:30:36;2.03;;;1.40;;
15287;SDS011;7745;48.708;9.026;2023-11-21T14:33:04;2.10;;;1.33;;
15287;SDS011;7745;48.708;9.026;2023-11-21T14:35:33;2.00;;;1.50;;
15287;SDS011;7745;48.708;9.026;2023-11-21T14:38:00;1.47;;;1.37;;
15287;SDS011;7745;48.708;9.026;2023-11-21T14:40:31;1.83;;;1.73;;
15287;SDS011;7745;48.708;9.026;2023-11-21T14:43:00;1.97;;;1.60;;
15287;SDS011;7745;48.708;9.026;2023-11-21T14:45:27;2.27;;;1.80;;
15287;SDS011;7745;48.708;9.026;2023-11-21T14:47:55;2.50;;;2.20;;
15287;SDS011;7745;48.708;9.026;2023-11-21T14:50:30;4.83;;;2.10;;
15287;SDS011;7745;48.708;9.026;2023-11-21T14:53:17;2.27;;;2.00;;
15287;SDS011;7745;48.708;9.026;2023-11-21T14:56:07;2.50;;;2.30;;
15287;SDS011;7745;48.708;9.026;2023-11-21T14:58:33;3.10;;;2.10;;
15287;SDS011;7745;48.708;9.026;2023-11-21T15:01:01;2.30;;;2.10;;
15287;SDS011;7745;48.708;9.026;2023-11-21T15:03:28;5.17;;;2.33;;
15287;SDS011;7745;48.708;9.026;2023-11-21T15:06:14;8.27;;;2.97;;
15287;SDS011;7745;48.708;9.026;2023-11-21T15:08:55;4.87;;;2.50;;
15287;SDS011;7745;48.708;9.026;2023-11-21T15:11:41;3.77;;;2.60;;
15287;SDS011;7745;48.708;9.026;2023-11-21T15:14:08;3.33;;;2.87;;
15287;SDS011;7745;48.708;9.026;2023-11-21T15:16:38;3.27;;;2.77;;
15287;SDS011;7745;48.708;9.026;2023-11-21T15:19:07;3.17;;;2.97;;
15287;SDS011;7745;48.708;9.026;2023-11-21T15:21:37;4.93;;;3.37;;
15287;SDS011;7745;48.708;9.026;2023-11-21T15:24:04;2.70;;;2.50;;
15287;SDS011;7745;48.708;9.026;2023-11-21T15:26:31;2.93;;;2.70;;
15287;SDS011;7745;48.708;9.026;2023-11-21T15:28:59;3.27;;;2.97;;
15287;SDS011;7745;48.708;9.026;2023-11-21T15:31:26;3.40;;;3.10;;
15287;SDS011;7745;48.708;9.026;2023-11-21T15:33:53;3.63;;;3.00;;
15287;SDS011;7745;48.708;9.026;2023-11-21T15:36:24;2.97;;;2.67;;
15287;SDS011;7745;48.708;9.026;2023-11-21T15:38:51;8.20;;;2.73;;
15287;SDS011;7745;48.708;9.026;2023-11-21T15:41:18;3.80;;;3.20;;